Webcam Flughafen St.Gallen-Altenrhein

Live-Bilder und Zeitraffer LSZR / ACH.

 

Live aus Altenrhein
LIVE
LSZR 190420Z VRB02KT CAVOK 14/13 Q1021 NOSIG RMK A
Zeitraffer heute
2018-09-19 00:14:13
LSZR 182150Z AUTO 31006KT 9999 BKN130 SCT150 //////TCU 19/14 Q1021
Zeitraffer gestern
2018-09-18 00:13:56
LSZR 172150Z AUTO VRB01KT CAVOK 16/13 Q1018
Zeitraffer vor 3 Tagen
2018-09-16 00:14:18
LSZR 152150Z AUTO 26003KT CAVOK 15/13 Q1024